Marfret Guyane — FNMV — position and weather

sailwx.info

Track history (hours):
 
Tides and Currents Weather Stations Pressure Air Temp Water Temp Dewpoint Dewpoint Depression Visibility Wind Speed Wind Dir Waves Ship Positions

Marfret Guyane

Last reported at 2016-Dec-04 05:32 UTC. Time now 2016-Dec-04 06:07 UTC.
Position N 10°39' W 061°32'.

Length 170 m; draft 6.4 m.

Type: Ship (hazmat cat A). MMSI: 226324000.

Date/timePositionNaut miles runAvg speedWind from/ knotsBaromVisibWave heightAir tempDewpointWater temp
2016-Dec-04 05:32N 10°39' W 061°32'0 0.0
2016-Dec-04 04:32N 10°39' W 061°32'0 0.0
2016-Dec-04 03:32N 10°39' W 061°32'0 0.0
2016-Dec-04 02:32N 10°39' W 061°32'0 0.0
2016-Dec-04 01:29N 10°39' W 061°32'0 0.0
2016-Dec-04 00:32N 10°39' W 061°32'0 0.0
2016-Dec-03 23:32N 10°39' W 061°32'0 0.0
2016-Dec-03 22:32N 10°39' W 061°32'0 0.0
2016-Dec-03 21:32N 10°39' W 061°32'0 0.0
2016-Dec-03 20:32N 10°39' W 061°32'4 3.9
2016-Dec-03 19:34N 10°37' W 061°35'1 1.4
2016-Dec-03 18:34N 10°36' W 061°36'2 2.4
2016-Dec-03 17:34N 10°36' W 061°38'1312.7
2016-Dec-03 16:34N 10°43' W 061°48'2017.6
2016-Dec-03 15:24N 11°03' W 061°54'1617.4
2016-Dec-03 14:30N 11°18' W 061°58'38917.7
2016-Dec-02 16:31N 17°42' W 063°06'1616.6
2016-Dec-02 15:33N 17°58' W 063°05'3 0.2
2016-Dec-01 23:12N 18°01' W 063°03'2 3.2
2016-Dec-01 22:32N 17°60' W 063°05'  
2016-Nov-26 21:33N 36°49' W 026°35'1818.4
2016-Nov-26 20:33N 36°58' W 026°15'1818.5
2016-Nov-26 19:34N 37°07' W 025°55'1818.0
2016-Nov-26 18:34N 37°17' W 025°36'1818.3
2016-Nov-26 17:33N 37°26' W 025°16'1818.4
2016-Nov-26 16:33N 37°37' W 024°57'1918.7
2016-Nov-26 15:33N 37°49' W 024°39'1918.7
2016-Nov-26 14:33N 38°01' W 024°21'1918.7
2016-Nov-26 13:31N 38°13' W 024°02'  
2016-Nov-24 08:33N 48°30' W 006°37'1818.1
2016-Nov-24 07:33N 48°41' W 006°16'1818.5
2016-Nov-24 06:34N 48°53' W 005°54'1817.9
2016-Nov-24 05:33N 49°03' W 005°31'  
Track history (hours):
 
Tides and Currents Weather Stations Pressure Air Temp Water Temp Dewpoint Dewpoint Depression Visibility Wind Speed Wind Dir Waves Ship Positions

Marfret Guyane

Last reported at 2016-Dec-04 05:32 UTC. Time now 2016-Dec-04 06:07 UTC.
Position N 10°39' W 061°32'.

Length 170 m; draft 6.4 m.

Type: Ship (hazmat cat A). MMSI: 226324000.

Date/timePositionNaut miles runAvg speedWind from/ knotsBaromVisibWave heightAir tempDewpointWater temp
2016-Dec-04 05:32N 10°39' W 061°32'0 0.0
2016-Dec-04 04:32N 10°39' W 061°32'0 0.0
2016-Dec-04 03:32N 10°39' W 061°32'0 0.0
2016-Dec-04 02:32N 10°39' W 061°32'0 0.0
2016-Dec-04 01:29N 10°39' W 061°32'0 0.0
2016-Dec-04 00:32N 10°39' W 061°32'0 0.0
2016-Dec-03 23:32N 10°39' W 061°32'0 0.0
2016-Dec-03 22:32N 10°39' W 061°32'0 0.0
2016-Dec-03 21:32N 10°39' W 061°32'0 0.0
2016-Dec-03 20:32N 10°39' W 061°32'4 3.9
2016-Dec-03 19:34N 10°37' W 061°35'1 1.4
2016-Dec-03 18:34N 10°36' W 061°36'2 2.4
2016-Dec-03 17:34N 10°36' W 061°38'1312.7
2016-Dec-03 16:34N 10°43' W 061°48'2017.6
2016-Dec-03 15:24N 11°03' W 061°54'1617.4
2016-Dec-03 14:30N 11°18' W 061°58'38917.7
2016-Dec-02 16:31N 17°42' W 063°06'1616.6
2016-Dec-02 15:33N 17°58' W 063°05'3 0.2
2016-Dec-01 23:12N 18°01' W 063°03'2 3.2
2016-Dec-01 22:32N 17°60' W 063°05'  
2016-Nov-26 21:33N 36°49' W 026°35'1818.4
2016-Nov-26 20:33N 36°58' W 026°15'1818.5
2016-Nov-26 19:34N 37°07' W 025°55'1818.0
2016-Nov-26 18:34N 37°17' W 025°36'1818.3
2016-Nov-26 17:33N 37°26' W 025°16'1818.4
2016-Nov-26 16:33N 37°37' W 024°57'1918.7
2016-Nov-26 15:33N 37°49' W 024°39'1918.7
2016-Nov-26 14:33N 38°01' W 024°21'1918.7
2016-Nov-26 13:31N 38°13' W 024°02'  
2016-Nov-24 08:33N 48°30' W 006°37'1818.1
2016-Nov-24 07:33N 48°41' W 006°16'1818.5
2016-Nov-24 06:34N 48°53' W 005°54'1817.9
2016-Nov-24 05:33N 49°03' W 005°31'  

Dump ship's entire track history